Time;durP1;ratioP1;P1;durP2;ratioP2;P2;SDS_P1;SDS_P2;PMS_P1;PMS_P2;Temp;Humidity;BMP_temperature;BMP_pressure;BME280_temperature;BME280_humidity;BME280_pressure;Samples;Min_cycle;Max_cycle;Signal;HPM_P1;HPM_P2
2022/10/20 00:02:24;;;;;;;;;;;19.50;99.90;;;;;;5042586;28;19921;-84
2022/10/20 00:04:50;;;;;;;;;;;19.50;99.90;;;;;;5046669;28;19917;-85
2022/10/20 00:07:15;;;;;;;;;;;19.60;99.90;;;;;;5032563;28;20610;-84
2022/10/20 00:09:41;;;;;;;;;;;19.50;99.90;;;;;;5050937;28;19991;-83
2022/10/20 00:12:06;;;;;;;;;;;19.30;99.90;;;;;;5050840;28;19917;-84
2022/10/20 00:14:32;;;;;;;;;;;19.40;99.90;;;;;;5036569;28;19923;-84
2022/10/20 00:17:00;;;;;;;;;;;19.50;99.90;;;;;;5034352;28;19935;-84
2022/10/20 00:19:26;;;;;;;;;;;19.40;99.90;;;;;;5050690;28;19956;-84
2022/10/20 00:21:51;;;;;;;;;;;19.40;99.90;;;;;;5051169;28;20331;-84
2022/10/20 00:24:19;;;;;;;;;;;19.40;99.90;;;;;;5036555;28;19920;-83
2022/10/20 00:26:45;;;;;;;;;;;19.30;99.90;;;;;;5050332;28;19956;-84
2022/10/20 00:29:10;;;;;;;;;;;19.30;99.90;;;;;;5051112;28;19944;-84
2022/10/20 00:31:36;;;;;;;;;;;19.30;99.90;;;;;;5032913;28;19920;-84
2022/10/20 00:34:01;;;;;;;;;;;19.20;99.90;;;;;;5051993;28;19916;-84
2022/10/20 00:36:27;;;;;;;;;;;19.20;99.90;;;;;;5033220;28;19956;-83
2022/10/20 00:38:57;;;;;;;;;;;19.20;99.90;;;;;;5059835;28;19927;-85
2022/10/20 00:41:23;;;;;;;;;;;19.10;99.90;;;;;;5029748;28;19909;-84
2022/10/20 00:43:50;;;;;;;;;;;19.10;99.90;;;;;;5048273;28;19917;-85
2022/10/20 00:46:17;;;;;;;;;;;19.00;99.90;;;;;;5055503;28;20781;-84
2022/10/20 00:48:45;;;;;;;;;;;19.00;99.90;;;;;;5053565;28;20760;-83
2022/10/20 00:51:12;;;;;;;;;;;18.90;99.90;;;;;;5053899;28;20300;-83
2022/10/20 00:53:38;;;;;;;;;;;18.70;99.90;;;;;;5039069;28;19917;-84
2022/10/20 00:56:03;;;;;;;;;;;18.60;99.90;;;;;;5051130;28;20378;-84
2022/10/20 00:58:29;;;;;;;;;;;18.60;99.90;;;;;;5032705;28;19971;-86
2022/10/20 01:00:56;;;;;;;;;;;18.60;99.90;;;;;;5038360;28;19932;-86
2022/10/20 01:03:29;;;;;;;;;;;18.60;99.90;;;;;;5051820;28;20547;-85
2022/10/20 01:05:54;;;;;;;;;;;18.50;99.90;;;;;;5050811;28;20324;-86
2022/10/20 01:08:20;;;;;;;;;;;18.60;99.90;;;;;;5055043;28;19916;-85
2022/10/20 01:10:58;;;;;;;;;;;18.60;99.90;;;;;;5049973;28;19920;-84
2022/10/20 01:13:26;;;;;;;;;;;18.60;99.90;;;;;;5053056;28;19916;-84
2022/10/20 01:15:57;;;;;;;;;;;18.40;99.90;;;;;;5049718;28;19976;-83
2022/10/20 01:18:23;;;;;;;;;;;18.40;99.90;;;;;;5051996;28;19909;-84
2022/10/20 01:20:48;;;;;;;;;;;18.40;99.90;;;;;;5048065;28;19927;-85
2022/10/20 01:23:26;;;;;;;;;;;18.40;99.90;;;;;;5041411;28;19916;-85
2022/10/20 01:26:07;;;;;;;;;;;18.40;99.90;;;;;;5046512;28;19959;-84
2022/10/20 01:28:41;;;;;;;;;;;18.30;99.90;;;;;;5031607;28;20300;-83
2022/10/20 01:31:30;;;;;;;;;;;18.20;99.90;;;;;;5042602;28;20296;-84
2022/10/20 01:34:05;;;;;;;;;;;18.00;99.90;;;;;;5049379;28;19916;-84
2022/10/20 01:36:38;;;;;;;;;;;18.00;99.90;;;;;;5056651;28;19920;-84
2022/10/20 01:39:24;;;;;;;;;;;18.10;99.90;;;;;;5048360;28;19916;-84
2022/10/20 01:41:53;;;;;;;;;;;18.10;99.90;;;;;;5047393;28;19928;-84
2022/10/20 01:44:19;;;;;;;;;;;18.00;99.90;;;;;;5050630;28;20421;-84
2022/10/20 01:46:45;;;;;;;;;;;18.10;99.90;;;;;;5051450;28;19921;-84
2022/10/20 01:49:11;;;;;;;;;;;18.00;99.90;;;;;;5051468;28;19917;-84
2022/10/20 01:51:37;;;;;;;;;;;17.90;99.90;;;;;;5052172;28;19916;-84
2022/10/20 01:54:02;;;;;;;;;;;18.00;99.90;;;;;;5053612;28;19942;-84
2022/10/20 01:56:41;;;;;;;;;;;17.90;99.90;;;;;;5054978;28;20748;-84
2022/10/20 01:59:13;;;;;;;;;;;17.90;99.90;;;;;;5054638;28;19939;-83
2022/10/20 02:01:59;;;;;;;;;;;17.20;99.90;;;;;;5044423;28;19947;-84
2022/10/20 02:04:34;;;;;;;;;;;17.00;99.90;;;;;;5044409;28;19931;-84
2022/10/20 02:07:17;;;;;;;;;;;17.20;99.90;;;;;;5030812;28;19912;-84
2022/10/20 02:09:47;;;;;;;;;;;17.20;99.90;;;;;;5052607;28;19916;-83
2022/10/20 02:12:19;;;;;;;;;;;17.40;99.90;;;;;;5048679;28;19913;-84
2022/10/20 02:14:45;;;;;;;;;;;17.50;99.90;;;;;;5045523;28;19917;-82
2022/10/20 02:17:13;;;;;;;;;;;17.50;99.90;;;;;;5044958;28;20024;-83
2022/10/20 02:19:40;;;;;;;;;;;17.50;99.90;;;;;;5050747;28;19920;-83
2022/10/20 02:22:07;;;;;;;;;;;17.50;99.90;;;;;;5055092;28;19951;-82
2022/10/20 02:24:34;;;;;;;;;;;17.60;99.90;;;;;;5031792;28;19919;-82
2022/10/20 02:27:02;;;;;;;;;;;17.60;99.90;;;;;;5049000;28;20003;-83
2022/10/20 02:29:29;;;;;;;;;;;17.50;99.90;;;;;;5050957;28;19959;-82
2022/10/20 02:31:55;;;;;;;;;;;17.10;99.90;;;;;;5049253;28;20587;-83
2022/10/20 02:34:24;;;;;;;;;;;16.90;99.90;;;;;;5050808;28;19986;-83
2022/10/20 02:36:49;;;;;;;;;;;16.80;99.90;;;;;;5048013;28;20490;-82
2022/10/20 02:39:15;;;;;;;;;;;16.90;99.90;;;;;;5052340;28;19921;-80
2022/10/20 02:41:40;;;;;;;;;;;16.90;99.90;;;;;;5030610;28;20063;-80
2022/10/20 02:44:06;;;;;;;;;;;16.90;99.90;;;;;;5034282;28;19917;-80
2022/10/20 02:46:31;;;;;;;;;;;16.70;99.90;;;;;;5039140;28;20562;-80
2022/10/20 02:48:57;;;;;;;;;;;16.70;99.90;;;;;;5050796;28;20043;-80
2022/10/20 02:51:22;;;;;;;;;;;16.70;99.90;;;;;;5055481;28;19924;-80
2022/10/20 02:53:48;;;;;;;;;;;16.80;99.90;;;;;;5053842;28;19921;-80
2022/10/20 02:56:14;;;;;;;;;;;16.80;99.90;;;;;;5029427;28;20015;-80
2022/10/20 02:58:39;;;;;;;;;;;16.80;99.90;;;;;;5034661;28;19917;-80
2022/10/20 03:01:05;;;;;;;;;;;16.80;99.90;;;;;;5048357;28;19920;-80
2022/10/20 03:03:30;;;;;;;;;;;16.80;99.90;;;;;;5052502;28;20030;-80
2022/10/20 03:05:56;;;;;;;;;;;16.80;99.90;;;;;;5052457;28;20031;-80
2022/10/20 03:08:22;;;;;;;;;;;16.80;99.90;;;;;;5054892;28;20390;-80
2022/10/20 03:10:47;;;;;;;;;;;16.90;99.90;;;;;;5033202;28;19969;-79
2022/10/20 03:13:14;;;;;;;;;;;16.80;99.90;;;;;;5054428;28;19924;-81
2022/10/20 03:15:40;;;;;;;;;;;16.90;99.90;;;;;;5030063;28;20090;-80
2022/10/20 03:18:05;;;;;;;;;;;16.90;99.90;;;;;;5048939;28;20044;-81
2022/10/20 03:20:31;;;;;;;;;;;16.90;99.90;;;;;;5049229;28;19913;-81
2022/10/20 03:22:57;;;;;;;;;;;16.90;99.90;;;;;;5049403;28;19916;-81
2022/10/20 03:25:22;;;;;;;;;;;16.90;99.90;;;;;;5047580;28;19917;-82
2022/10/20 03:27:48;;;;;;;;;;;16.90;99.90;;;;;;5049678;28;19971;-79
2022/10/20 03:30:13;;;;;;;;;;;17.00;99.90;;;;;;5054257;28;19921;-78
2022/10/20 03:32:39;;;;;;;;;;;17.00;99.90;;;;;;5049146;28;19916;-79
2022/10/20 03:35:04;;;;;;;;;;;17.00;99.90;;;;;;5047788;28;20737;-79
2022/10/20 03:37:30;;;;;;;;;;;17.00;99.90;;;;;;5046169;28;19967;-80
2022/10/20 03:39:55;;;;;;;;;;;17.00;99.90;;;;;;5042559;28;19979;-80
2022/10/20 03:42:21;;;;;;;;;;;17.00;99.90;;;;;;5046577;28;19909;-79
2022/10/20 03:44:47;;;;;;;;;;;17.10;99.90;;;;;;5031627;28;19920;-80
2022/10/20 03:47:13;;;;;;;;;;;17.10;99.90;;;;;;5053650;28;19917;-79
2022/10/20 03:49:39;;;;;;;;;;;17.20;99.90;;;;;;5038261;28;19923;-80
2022/10/20 03:52:04;;;;;;;;;;;17.20;99.90;;;;;;5048675;28;20683;-80
2022/10/20 03:54:30;;;;;;;;;;;17.20;99.90;;;;;;5054144;28;19923;-80
2022/10/20 03:56:56;;;;;;;;;;;17.20;99.90;;;;;;5048356;28;19980;-80
2022/10/20 03:59:21;;;;;;;;;;;17.20;99.90;;;;;;5053092;28;19923;-80
2022/10/20 04:01:47;;;;;;;;;;;17.20;99.90;;;;;;5051826;28;19947;-80
2022/10/20 04:04:13;;;;;;;;;;;17.30;99.90;;;;;;5038680;28;20256;-80
2022/10/20 04:06:38;;;;;;;;;;;17.40;99.90;;;;;;5046832;28;20451;-80
2022/10/20 04:09:04;;;;;;;;;;;17.50;99.90;;;;;;5050251;28;19916;-80
2022/10/20 04:11:30;;;;;;;;;;;17.40;99.90;;;;;;5047484;28;20615;-81
2022/10/20 04:13:55;;;;;;;;;;;17.50;99.90;;;;;;5049221;28;20722;-80
2022/10/20 04:16:21;;;;;;;;;;;17.50;99.90;;;;;;5051260;28;19925;-80
2022/10/20 04:18:47;;;;;;;;;;;17.40;99.90;;;;;;5032557;28;19963;-80
2022/10/20 04:21:13;;;;;;;;;;;17.40;99.90;;;;;;5047196;28;20501;-80
2022/10/20 04:23:38;;;;;;;;;;;17.30;99.90;;;;;;5054005;28;19967;-80
2022/10/20 04:26:10;;;;;;;;;;;17.20;99.90;;;;;;5029133;28;19913;-80
2022/10/20 04:28:36;;;;;;;;;;;17.20;99.90;;;;;;5053379;28;19917;-80
2022/10/20 04:31:02;;;;;;;;;;;17.30;99.90;;;;;;5036575;28;20371;-81
2022/10/20 04:33:28;;;;;;;;;;;17.30;99.90;;;;;;5054721;28;19916;-80
2022/10/20 04:35:59;;;;;;;;;;;17.40;99.90;;;;;;5038146;28;20104;-80
2022/10/20 04:38:25;;;;;;;;;;;17.30;99.90;;;;;;5055442;28;20063;-79
2022/10/20 04:40:57;;;;;;;;;;;17.30;99.90;;;;;;5056611;28;19959;-82
2022/10/20 04:43:23;;;;;;;;;;;17.20;99.90;;;;;;5032806;28;20399;-83
2022/10/20 04:45:48;;;;;;;;;;;17.20;99.90;;;;;;5058331;28;19974;-86
2022/10/20 04:48:14;;;;;;;;;;;17.10;99.90;;;;;;5048007;28;19917;-83
2022/10/20 04:50:39;;;;;;;;;;;17.10;99.90;;;;;;5028788;28;20000;-82
2022/10/20 04:53:05;;;;;;;;;;;17.10;99.90;;;;;;5048309;28;19920;-84
2022/10/20 04:55:30;;;;;;;;;;;17.00;99.90;;;;;;5038735;28;19920;-84
2022/10/20 04:57:56;;;;;;;;;;;17.00;99.90;;;;;;5050307;28;19913;-82
2022/10/20 05:00:22;;;;;;;;;;;17.00;99.90;;;;;;5033032;28;19917;-83
2022/10/20 05:02:47;;;;;;;;;;;16.90;99.90;;;;;;5034394;28;19913;-82
2022/10/20 05:05:13;;;;;;;;;;;16.90;99.90;;;;;;5049962;28;19920;-82
2022/10/20 05:07:38;;;;;;;;;;;16.90;99.90;;;;;;5053103;28;20383;-85
2022/10/20 05:10:04;;;;;;;;;;;17.00;99.90;;;;;;5050872;28;19920;-82
2022/10/20 05:12:29;;;;;;;;;;;17.00;99.90;;;;;;5049814;28;19913;-80
2022/10/20 05:14:55;;;;;;;;;;;17.10;99.90;;;;;;5050775;28;20926;-81
2022/10/20 05:17:21;;;;;;;;;;;17.20;99.90;;;;;;5053755;28;19927;-80
2022/10/20 05:19:46;;;;;;;;;;;17.20;99.90;;;;;;5052904;28;19968;-81
2022/10/20 05:22:12;;;;;;;;;;;17.40;99.90;;;;;;5051246;28;19924;-80
2022/10/20 05:24:37;;;;;;;;;;;17.30;99.90;;;;;;5031736;28;19920;-80
2022/10/20 05:27:03;;;;;;;;;;;17.30;99.90;;;;;;5031529;28;19988;-80
2022/10/20 05:29:28;;;;;;;;;;;17.30;99.90;;;;;;5049307;28;19923;-81
2022/10/20 05:31:54;;;;;;;;;;;17.30;99.90;;;;;;5050244;28;20647;-82
2022/10/20 05:34:19;;;;;;;;;;;17.40;99.90;;;;;;5053776;28;19967;-79
2022/10/20 05:36:45;;;;;;;;;;;17.40;99.90;;;;;;5050355;28;19921;-82
2022/10/20 05:39:10;;;;;;;;;;;17.40;99.90;;;;;;5048716;28;19917;-81
2022/10/20 05:41:36;;;;;;;;;;;17.40;99.90;;;;;;5036753;28;20576;-82
2022/10/20 05:44:03;;;;;;;;;;;17.30;99.90;;;;;;5056323;28;19993;-82
2022/10/20 05:46:30;;;;;;;;;;;17.30;99.90;;;;;;5051847;28;19916;-80
2022/10/20 05:48:57;;;;;;;;;;;17.30;99.90;;;;;;5050698;28;20024;-81
2022/10/20 05:51:24;;;;;;;;;;;17.30;99.90;;;;;;5037369;28;19986;-82
2022/10/20 05:53:50;;;;;;;;;;;17.20;99.90;;;;;;5053052;28;20030;-83
2022/10/20 05:56:17;;;;;;;;;;;17.20;99.90;;;;;;5050140;28;20030;-83
2022/10/20 05:58:46;;;;;;;;;;;17.20;99.90;;;;;;5062547;28;19920;-87
2022/10/20 06:01:22;;;;;;;;;;;17.10;99.90;;;;;;5031513;28;19916;-86
2022/10/20 06:03:54;;;;;;;;;;;17.00;99.90;;;;;;5039841;28;19921;-85
2022/10/20 06:06:20;;;;;;;;;;;16.90;99.90;;;;;;5031959;28;19944;-85
2022/10/20 06:08:46;;;;;;;;;;;16.80;99.90;;;;;;5060141;28;19927;-83
2022/10/20 06:11:12;;;;;;;;;;;16.90;99.90;;;;;;5030990;28;19993;-82
2022/10/20 06:13:38;;;;;;;;;;;17.10;99.90;;;;;;5032641;28;19916;-82
2022/10/20 06:16:08;;;;;;;;;;;17.30;99.90;;;;;;5048884;28;19921;-82
2022/10/20 06:18:33;;;;;;;;;;;17.30;99.90;;;;;;5030960;28;19913;-82
2022/10/20 06:21:03;;;;;;;;;;;17.30;99.90;;;;;;5031493;28;19920;-82
2022/10/20 06:23:29;;;;;;;;;;;17.40;99.90;;;;;;5049048;28;20019;-83
2022/10/20 06:25:54;;;;;;;;;;;17.50;99.90;;;;;;5030228;28;20043;-83
2022/10/20 06:28:20;;;;;;;;;;;17.50;99.90;;;;;;5048954;28;19991;-83
2022/10/20 06:30:46;;;;;;;;;;;17.50;99.90;;;;;;5030718;28;20305;-82
2022/10/20 06:33:13;;;;;;;;;;;17.50;99.90;;;;;;5056498;28;19916;-82
2022/10/20 06:35:39;;;;;;;;;;;17.50;99.90;;;;;;5048947;28;19920;-82
2022/10/20 06:38:04;;;;;;;;;;;17.60;99.90;;;;;;5030285;28;19921;-82
2022/10/20 06:40:30;;;;;;;;;;;17.70;99.90;;;;;;5049209;28;20106;-83
2022/10/20 06:42:56;;;;;;;;;;;17.70;99.90;;;;;;5029159;28;19956;-82
2022/10/20 06:45:21;;;;;;;;;;;17.60;99.90;;;;;;5047972;28;20074;-82
2022/10/20 06:47:47;;;;;;;;;;;17.70;99.90;;;;;;5046739;28;20303;-82
2022/10/20 06:50:12;;;;;;;;;;;17.70;99.90;;;;;;5028449;28;19913;-82
2022/10/20 06:52:38;;;;;;;;;;;17.60;99.90;;;;;;5046969;28;19913;-83
2022/10/20 06:55:03;;;;;;;;;;;17.70;99.90;;;;;;5046869;28;20015;-82
2022/10/20 06:57:30;;;;;;;;;;;17.70;99.90;;;;;;5047351;28;20445;-82
2022/10/20 06:59:55;;;;;;;;;;;17.80;99.90;;;;;;5046977;28;19931;-82
2022/10/20 07:02:21;;;;;;;;;;;17.80;99.90;;;;;;5048198;28;19913;-83
2022/10/20 07:04:48;;;;;;;;;;;17.90;99.90;;;;;;5047869;28;20043;-82
2022/10/20 07:07:13;;;;;;;;;;;18.00;99.90;;;;;;5047912;28;19913;-82
2022/10/20 07:09:39;;;;;;;;;;;18.00;99.90;;;;;;5051630;28;19923;-82
2022/10/20 07:12:05;;;;;;;;;;;18.00;99.90;;;;;;5030224;28;19912;-82
2022/10/20 07:14:30;;;;;;;;;;;18.10;99.90;;;;;;5048284;28;20031;-82
2022/10/20 07:16:56;;;;;;;;;;;18.20;99.90;;;;;;5029988;28;19921;-82
2022/10/20 07:19:21;;;;;;;;;;;18.20;99.90;;;;;;5030077;28;19920;-82
2022/10/20 07:21:47;;;;;;;;;;;18.30;99.90;;;;;;5048428;28;20000;-82
2022/10/20 07:24:13;;;;;;;;;;;18.20;99.90;;;;;;5030370;28;20613;-82
2022/10/20 07:26:39;;;;;;;;;;;18.30;99.90;;;;;;5029362;28;19913;-83
2022/10/20 07:29:05;;;;;;;;;;;18.40;99.90;;;;;;5029579;28;19923;-82
2022/10/20 07:31:35;;;;;;;;;;;18.30;99.90;;;;;;5047603;28;19916;-83
2022/10/20 07:34:02;;;;;;;;;;;18.40;99.90;;;;;;5047863;28;20008;-83
2022/10/20 07:36:28;;;;;;;;;;;18.40;99.90;;;;;;5047940;28;20289;-82
2022/10/20 07:38:55;;;;;;;;;;;18.50;99.90;;;;;;5028585;28;19913;-82
2022/10/20 07:41:20;;;;;;;;;;;18.50;99.90;;;;;;5047535;28;19913;-83
2022/10/20 07:43:46;;;;;;;;;;;18.50;99.90;;;;;;5029768;28;20351;-83
2022/10/20 07:46:12;;;;;;;;;;;18.50;99.90;;;;;;5047589;28;19955;-83
2022/10/20 07:48:38;;;;;;;;;;;18.60;99.90;;;;;;5047830;28;20046;-82
2022/10/20 07:51:12;;;;;;;;;;;18.60;99.90;;;;;;5036424;28;19931;-82
2022/10/20 07:53:38;;;;;;;;;;;18.70;99.90;;;;;;5047396;28;20007;-83
2022/10/20 07:56:04;;;;;;;;;;;18.70;99.90;;;;;;5048102;28;20028;-83
2022/10/20 07:58:29;;;;;;;;;;;18.70;99.90;;;;;;5047744;28;19963;-82
2022/10/20 08:00:55;;;;;;;;;;;18.80;99.90;;;;;;5047328;28;19917;-83
2022/10/20 08:03:20;;;;;;;;;;;18.80;99.90;;;;;;5048110;28;20013;-83
2022/10/20 08:05:46;;;;;;;;;;;18.90;99.90;;;;;;5029519;28;19952;-83
2022/10/20 08:08:11;;;;;;;;;;;19.00;99.90;;;;;;5048256;28;20205;-83
2022/10/20 08:10:37;;;;;;;;;;;19.10;99.90;;;;;;5052093;28;20003;-83
2022/10/20 08:13:02;;;;;;;;;;;19.20;99.90;;;;;;5051582;28;20002;-82
2022/10/20 08:15:28;;;;;;;;;;;19.30;99.90;;;;;;5049243;28;19912;-82
2022/10/20 08:17:53;;;;;;;;;;;19.40;99.90;;;;;;5047618;28;20375;-83
2022/10/20 08:20:19;;;;;;;;;;;19.40;99.90;;;;;;5047791;28;19912;-83
2022/10/20 08:22:45;;;;;;;;;;;19.50;99.90;;;;;;5048079;28;20022;-82
2022/10/20 08:25:12;;;;;;;;;;;19.60;99.90;;;;;;5047697;28;19913;-83
2022/10/20 08:27:38;;;;;;;;;;;19.60;99.90;;;;;;5047700;28;19998;-82
2022/10/20 08:30:04;;;;;;;;;;;19.60;99.90;;;;;;5050163;28;19921;-83
2022/10/20 08:32:29;;;;;;;;;;;19.60;99.90;;;;;;5051832;28;19994;-82
2022/10/20 08:34:55;;;;;;;;;;;19.70;99.90;;;;;;5051400;28;19923;-82
2022/10/20 08:37:20;;;;;;;;;;;19.70;99.90;;;;;;5048989;28;19959;-83
2022/10/20 08:39:46;;;;;;;;;;;19.70;99.90;;;;;;5040581;28;19913;-83
2022/10/20 08:42:11;;;;;;;;;;;19.70;99.90;;;;;;5050551;28;19913;-83
2022/10/20 08:44:38;;;;;;;;;;;19.80;99.90;;;;;;5051699;28;19923;-83
2022/10/20 08:47:11;;;;;;;;;;;19.90;99.90;;;;;;5051926;28;19940;-83
2022/10/20 08:49:37;;;;;;;;;;;20.00;99.90;;;;;;5051238;28;19923;-83
2022/10/20 08:52:02;;;;;;;;;;;20.00;99.90;;;;;;5050926;28;19913;-83
2022/10/20 08:54:31;;;;;;;;;;;20.00;99.90;;;;;;5033287;28;19920;-83
2022/10/20 08:56:57;;;;;;;;;;;20.00;99.90;;;;;;5035156;28;19916;-83
2022/10/20 08:59:28;;;;;;;;;;;20.00;99.90;;;;;;5032662;28;19912;-82
2022/10/20 09:01:55;;;;;;;;;;;20.10;99.90;;;;;;5050346;28;19912;-82
2022/10/20 09:04:47;;;;;;;;;;;20.20;99.90;;;;;;5050546;28;19913;-82
2022/10/20 09:07:17;;;;;;;;;;;20.30;99.90;;;;;;5012946;28;20013;-83
2022/10/20 09:09:43;;;;;;;;;;;20.60;99.90;;;;;;5031307;28;19925;-82
2022/10/20 09:12:11;;;;;;;;;;;20.60;99.90;;;;;;5050093;28;19989;-83
2022/10/20 09:14:36;;;;;;;;;;;20.50;99.90;;;;;;5050293;28;20391;-83
2022/10/20 09:17:03;;;;;;;;;;;20.50;99.90;;;;;;5056955;28;19920;-83
2022/10/20 09:19:28;;;;;;;;;;;20.50;99.90;;;;;;5032084;28;19913;-82
2022/10/20 09:21:56;;;;;;;;;;;20.80;99.90;;;;;;5050296;28;20832;-83
2022/10/20 09:24:23;;;;;;;;;;;20.90;99.90;;;;;;5050469;28;20270;-83
2022/10/20 09:26:49;;;;;;;;;;;21.20;99.90;;;;;;5032156;28;19998;-83
2022/10/20 09:29:16;;;;;;;;;;;21.50;99.90;;;;;;5031646;28;19919;-83
2022/10/20 09:32:00;;;;;;;;;;;21.70;99.90;;;;;;5031893;28;21182;-83
2022/10/20 09:34:28;;;;;;;;;;;21.70;99.90;;;;;;5041818;28;19944;-83
2022/10/20 09:37:00;;;;;;;;;;;21.50;99.90;;;;;;5040215;28;19924;-83
2022/10/20 09:39:27;;;;;;;;;;;21.60;99.90;;;;;;5036148;28;19917;-83
2022/10/20 09:42:09;;;;;;;;;;;21.60;99.90;;;;;;5048159;28;19975;-83
2022/10/20 09:44:43;;;;;;;;;;;21.60;99.90;;;;;;5031514;28;19913;-83
2022/10/20 09:47:13;;;;;;;;;;;21.60;99.90;;;;;;5031473;28;20575;-83
2022/10/20 09:49:38;;;;;;;;;;;21.60;99.90;;;;;;5032097;28;19913;-83
2022/10/20 09:52:15;;;;;;;;;;;21.50;99.90;;;;;;5031563;28;20371;-83
2022/10/20 09:54:45;;;;;;;;;;;21.30;99.90;;;;;;5049867;28;21147;-83
2022/10/20 09:57:15;;;;;;;;;;;21.30;99.90;;;;;;5049066;28;19917;-83
2022/10/20 09:59:43;;;;;;;;;;;21.20;99.90;;;;;;5031494;28;19913;-82
2022/10/20 10:02:12;;;;;;;;;;;21.10;99.90;;;;;;5049860;28;20583;-83
2022/10/20 10:04:38;;;;;;;;;;;21.20;99.90;;;;;;5049981;28;19912;-83
2022/10/20 10:07:24;;;;;;;;;;;21.10;99.90;;;;;;5031653;28;20447;-83
2022/10/20 10:10:10;;;;;;;;;;;21.10;99.90;;;;;;5052741;28;19973;-82
2022/10/20 10:12:35;;;;;;;;;;;20.90;99.90;;;;;;5035638;28;20267;-83
2022/10/20 10:15:21;;;;;;;;;;;20.90;99.90;;;;;;5053387;28;19912;-83
2022/10/20 10:17:48;;;;;;;;;;;20.90;99.90;;;;;;5058077;28;19920;-82
2022/10/20 10:20:15;;;;;;;;;;;20.90;99.90;;;;;;5054993;28;19913;-83
2022/10/20 10:22:41;;;;;;;;;;;20.90;99.90;;;;;;5048835;28;19912;-83
2022/10/20 10:25:12;;;;;;;;;;;20.90;99.90;;;;;;5049253;28;19920;-83
2022/10/20 10:27:37;;;;;;;;;;;20.80;99.90;;;;;;5031182;28;20458;-83
2022/10/20 10:30:15;;;;;;;;;;;20.80;99.90;;;;;;5031590;28;19913;-83
2022/10/20 10:32:44;;;;;;;;;;;20.80;99.90;;;;;;5049449;28;19913;-83
2022/10/20 10:35:25;;;;;;;;;;;20.70;99.90;;;;;;5049239;28;19936;-83
2022/10/20 10:37:51;;;;;;;;;;;20.60;99.90;;;;;;5043048;28;19924;-83
2022/10/20 10:40:18;;;;;;;;;;;20.70;99.90;;;;;;5042145;28;19913;-83
2022/10/20 10:43:03;;;;;;;;;;;20.70;99.90;;;;;;5030162;28;19987;-83
2022/10/20 10:45:48;;;;;;;;;;;20.90;99.90;;;;;;5047818;28;19913;-83
2022/10/20 10:48:32;;;;;;;;;;;20.90;99.90;;;;;;5048381;28;19913;-83
2022/10/20 10:51:04;;;;;;;;;;;21.10;99.90;;;;;;5029721;28;19931;-83
2022/10/20 10:53:29;;;;;;;;;;;21.10;99.90;;;;;;5050115;28;19919;-82
2022/10/20 10:55:58;;;;;;;;;;;21.20;99.90;;;;;;5048359;28;20400;-83
2022/10/20 10:58:24;;;;;;;;;;;21.30;99.90;;;;;;5050692;28;19912;-83
2022/10/20 11:00:57;;;;;;;;;;;21.30;99.90;;;;;;5047965;28;19913;-83
2022/10/20 11:03:27;;;;;;;;;;;21.20;99.90;;;;;;5030216;28;19952;-83
2022/10/20 11:06:05;;;;;;;;;;;21.20;99.90;;;;;;5039546;28;20020;-83
2022/10/20 11:08:45;;;;;;;;;;;21.20;99.90;;;;;;5030015;28;20508;-83
2022/10/20 11:11:23;;;;;;;;;;;21.20;99.90;;;;;;5047162;28;19920;-83
2022/10/20 11:14:02;;;;;;;;;;;21.30;99.90;;;;;;5030199;28;19916;-83
2022/10/20 11:17:00;;;;;;;;;;;21.40;99.90;;;;;;5053120;28;19921;-83
2022/10/20 11:19:44;;;;;;;;;;;21.70;99.90;;;;;;4975735;28;19919;-83
2022/10/20 11:22:16;;;;;;;;;;;21.60;99.90;;;;;;5047745;28;19912;-83
2022/10/20 11:24:48;;;;;;;;;;;21.60;99.90;;;;;;5047794;28;20056;-83
2022/10/20 11:27:33;;;;;;;;;;;21.50;99.90;;;;;;5042066;28;19913;-83
2022/10/20 11:30:06;;;;;;;;;;;21.60;99.90;;;;;;5029771;28;20392;-83
2022/10/20 11:32:36;;;;;;;;;;;21.60;99.90;;;;;;5047820;28;19916;-83
2022/10/20 11:35:17;;;;;;;;;;;21.60;99.90;;;;;;5056145;28;19912;-83
2022/10/20 11:37:46;;;;;;;;;;;21.60;99.90;;;;;;5028398;28;19921;-83
2022/10/20 11:40:18;;;;;;;;;;;21.60;99.90;;;;;;5040729;28;19959;-83
2022/10/20 11:42:44;;;;;;;;;;;21.50;99.90;;;;;;5047067;28;19913;-83
2022/10/20 11:45:22;;;;;;;;;;;21.50;99.90;;;;;;5029799;28;19920;-83
2022/10/20 11:47:49;;;;;;;;;;;21.60;99.90;;;;;;5019466;28;20441;-82
2022/10/20 11:50:16;;;;;;;;;;;21.60;99.90;;;;;;5034152;28;19951;-83
2022/10/20 11:52:59;;;;;;;;;;;21.50;99.90;;;;;;5032120;28;19913;-83
2022/10/20 11:55:34;;;;;;;;;;;21.40;99.90;;;;;;5029190;28;19912;-83
2022/10/20 11:58:18;;;;;;;;;;;21.50;99.90;;;;;;5048329;28;19952;-83
2022/10/20 12:01:02;;;;;;;;;;;21.40;99.90;;;;;;5047232;28;19963;-83
2022/10/20 12:03:28;;;;;;;;;;;21.50;99.90;;;;;;5048006;28;19913;-83
2022/10/20 12:05:57;;;;;;;;;;;21.50;99.90;;;;;;5052037;28;19974;-83
2022/10/20 12:08:30;;;;;;;;;;;21.40;99.90;;;;;;5051724;28;19913;-83
2022/10/20 12:10:55;;;;;;;;;;;21.50;99.90;;;;;;5051112;28;19928;-83
2022/10/20 12:13:35;;;;;;;;;;;21.40;99.90;;;;;;5033457;28;20423;-83
2022/10/20 12:16:01;;;;;;;;;;;21.50;99.90;;;;;;5046568;28;20394;-83
2022/10/20 12:18:29;;;;;;;;;;;21.40;99.90;;;;;;5051419;28;19913;-82
2022/10/20 12:21:01;;;;;;;;;;;21.40;99.90;;;;;;5033694;28;20003;-82
2022/10/20 12:23:42;;;;;;;;;;;21.50;99.90;;;;;;5034090;28;19924;-83
2022/10/20 12:26:26;;;;;;;;;;;21.40;99.90;;;;;;5051567;28;19935;-83
2022/10/20 12:28:52;;;;;;;;;;;21.50;99.90;;;;;;5045820;28;19948;-83
2022/10/20 12:31:17;;;;;;;;;;;21.50;99.90;;;;;;5052010;28;20725;-83
2022/10/20 12:33:49;;;;;;;;;;;21.60;99.90;;;;;;5052117;28;19916;-84
2022/10/20 12:36:17;;;;;;;;;;;21.70;99.90;;;;;;5051670;28;20008;-83
2022/10/20 12:38:53;;;;;;;;;;;21.80;99.90;;;;;;5038407;28;20273;-83
2022/10/20 12:41:27;;;;;;;;;;;22.00;99.90;;;;;;5035900;28;20467;-83
2022/10/20 12:43:53;;;;;;;;;;;22.10;99.90;;;;;;5047861;28;19912;-84
2022/10/20 12:46:20;;;;;;;;;;;22.10;99.90;;;;;;5033293;28;19917;-84
2022/10/20 12:48:48;;;;;;;;;;;22.10;99.90;;;;;;5051128;28;19916;-83
2022/10/20 12:51:19;;;;;;;;;;;22.10;99.90;;;;;;5033163;28;20261;-83
2022/10/20 12:53:49;;;;;;;;;;;22.10;99.90;;;;;;5050990;28;19966;-83
2022/10/20 12:56:18;;;;;;;;;;;22.10;99.90;;;;;;5033203;28;20011;-83
2022/10/20 12:59:03;;;;;;;;;;;22.00;99.90;;;;;;5050839;28;19917;-83
2022/10/20 13:01:29;;;;;;;;;;;21.90;99.90;;;;;;5032654;28;19924;-83
2022/10/20 13:03:54;;;;;;;;;;;21.80;99.90;;;;;;5051179;28;19917;-83
2022/10/20 13:06:26;;;;;;;;;;;21.60;99.90;;;;;;5037800;28;20824;-83
2022/10/20 13:09:05;;;;;;;;;;;21.60;99.90;;;;;;5050685;28;19913;-83
2022/10/20 13:11:31;;;;;;;;;;;21.70;99.90;;;;;;5050816;28;19921;-83
2022/10/20 13:13:58;;;;;;;;;;;21.90;99.90;;;;;;5050252;28;19970;-83
2022/10/20 13:16:27;;;;;;;;;;;22.00;99.90;;;;;;5050010;28;20303;-83
2022/10/20 13:18:53;;;;;;;;;;;22.20;99.90;;;;;;5054721;28;19912;-84
2022/10/20 13:21:27;;;;;;;;;;;22.10;99.90;;;;;;5057186;28;20415;-84
2022/10/20 13:23:52;;;;;;;;;;;22.10;99.90;;;;;;5050318;28;20602;-83
2022/10/20 13:26:27;;;;;;;;;;;22.10;99.90;;;;;;5050056;28;19916;-84
2022/10/20 13:28:55;;;;;;;;;;;22.20;99.90;;;;;;5044737;28;19912;-84
2022/10/20 13:31:32;;;;;;;;;;;22.30;99.90;;;;;;5050253;28;19935;-84
2022/10/20 13:34:11;;;;;;;;;;;22.30;99.90;;;;;;5046407;28;20003;-83
2022/10/20 13:36:39;;;;;;;;;;;22.20;99.90;;;;;;5049975;28;19924;-83
2022/10/20 13:39:17;;;;;;;;;;;22.30;99.90;;;;;;5036604;28;19976;-83
2022/10/20 13:41:46;;;;;;;;;;;22.40;99.90;;;;;;5050723;28;20416;-83
2022/10/20 13:44:22;;;;;;;;;;;22.40;99.90;;;;;;5049706;28;19909;-84
2022/10/20 13:46:57;;;;;;;;;;;22.40;99.90;;;;;;5032283;28;19967;-84
2022/10/20 13:49:47;;;;;;;;;;;22.30;99.90;;;;;;5050608;28;20659;-83
2022/10/20 13:52:14;;;;;;;;;;;22.30;99.90;;;;;;5032011;28;19916;-84
2022/10/20 13:54:43;;;;;;;;;;;22.40;99.90;;;;;;5032585;28;20537;-84
2022/10/20 13:57:38;;;;;;;;;;;22.50;99.90;;;;;;5049836;28;20288;-84
2022/10/20 14:00:15;;;;;;;;;;;22.40;99.90;;;;;;5014398;28;20004;-84
2022/10/20 14:02:50;;;;;;;;;;;22.30;99.90;;;;;;5038896;28;19912;-83
2022/10/20 14:05:18;;;;;;;;;;;22.30;99.90;;;;;;5049395;28;19958;-83
2022/10/20 14:07:44;;;;;;;;;;;22.20;99.90;;;;;;5032136;28;19917;-84
2022/10/20 14:10:20;;;;;;;;;;;22.30;99.90;;;;;;5049177;28;19928;-84
2022/10/20 14:12:45;;;;;;;;;;;22.20;99.90;;;;;;5031720;28;19913;-84
2022/10/20 14:15:21;;;;;;;;;;;22.30;99.90;;;;;;5049910;28;20297;-83
2022/10/20 14:18:01;;;;;;;;;;;22.20;99.90;;;;;;5049829;28;21155;-84
2022/10/20 14:20:28;;;;;;;;;;;22.20;99.90;;;;;;5031897;28;19916;-84
2022/10/20 14:22:54;;;;;;;;;;;22.20;99.90;;;;;;5032397;28;19912;-84
2022/10/20 14:25:21;;;;;;;;;;;22.20;99.90;;;;;;5031604;28;19913;-84
2022/10/20 14:27:46;;;;;;;;;;;22.20;99.90;;;;;;5056112;28;19938;-84